Terminal Aerodrome Forecast
Issued by NWS Wilmington, OH

Current Version | Previous Version | Graphics & Text | Print | Product List | Glossary On
Versions: 1 2 3 4 5 6 7 8 9 10 11 12 13 14 15 16 17 18 19 20 21 22 23 24 25
000
FTUS41 KILN 071100
TAFCVG
TAF
KCVG 071120Z 0712/0818 22010KT P6SM BKN150
     FM071800 22013G22KT P6SM VCSH BKN040
      TEMPO 0720/0724 5SM -TSRA BR BKN030CB
     FM080000 21010KT P6SM VCSH BKN040
      TEMPO 0810/0814 5SM -TSRA BR BKN030CB
     FM081400 23014KT 5SM -TSRA BR SCT030CB OVC060=

USA.gov is the U.S. government's official web portal to all federal, state and local government web resources and services.